KCUB/CUB METAR and TAF weather

Enter ICAO airport designator
Station Type Date Time Source
KCUB METAR 2018/12/12 16:53 UTC NOAA

KCUB 121653Z AUTO 00000KT 10SM CLR 08/00 A3023 RMK AO2 SLP237 T00830000


Station Type Date Time Source
KCUB Decoded METAR 2018/12/12 16:53 UTC NOAA

OWENS DOWNTOWN AIRPORT, SC, United States (KCUB) 33-58N 081-00W 56M
Dec 12, 2018 - 11:53 AM EST / 2018.12.12 1653 UTC
Wind: Calm:0
Visibility: 10 mile(s):0
Sky conditions: clear
Temperature: 46.9 F (8.3 C)
Dew Point: 32.0 F (0.0 C)
Relative Humidity: 55%
Pressure (altimeter): 30.23 in. Hg (1023 hPa)
ob: KCUB 121653Z AUTO 00000KT 10SM CLR 08/00 A3023 RMK AO2 SLP237 T00830000
cycle: 17

Station Type Date Time Source
KCUB TAF 2018/12/12 15:48 UTC NOAA

TAF
AMD KCUB 121445Z 1215/1312 VRB04KT P6SM BKN250
FM130000 VRB03KT P6SM BKN250


Example: see airport list